Time;durP1;ratioP1;P1;durP2;ratioP2;P2;SDS_P1;SDS_P2;PMS_P1;PMS_P2;Temp;Humidity;BMP_temperature;BMP_pressure;BME280_temperature;BME280_humidity;BME280_pressure;Samples;Min_cycle;Max_cycle;Signal;HPM_P1;HPM_P2
2023/07/23 00:01:19;;;;;;;2.17;1.97;;;;;;;19.81;60.40;97830.25;4993657;28;20227;-77
2023/07/23 00:03:45;;;;;;;2.73;1.93;;;;;;;19.84;60.37;97831.59;4993769;28;20207;-78
2023/07/23 00:06:12;;;;;;;2.23;2.03;;;;;;;19.88;58.98;97832.59;4994790;28;20207;-77
2023/07/23 00:08:41;;;;;;;2.50;2.30;;;;;;;19.82;59.28;97829.19;4997126;28;20231;-77
2023/07/23 00:11:07;;;;;;;3.27;1.97;;;;;;;19.75;60.05;97831.38;4997018;28;20207;-76
2023/07/23 00:13:34;;;;;;;2.20;2.00;;;;;;;19.60;61.36;97835.00;4997379;28;20210;-77
2023/07/23 00:16:00;;;;;;;3.30;2.20;;;;;;;19.57;60.99;97831.28;4997526;28;20203;-78
2023/07/23 00:18:27;;;;;;;2.50;2.30;;;;;;;19.50;60.92;97831.59;4997171;28;20231;-77
2023/07/23 00:20:53;;;;;;;2.80;2.40;;;;;;;19.48;60.91;97831.06;4997076;28;20227;-77
2023/07/23 00:23:19;;;;;;;5.70;2.17;;;;;;;19.44;60.81;97836.22;4995892;28;20215;-77
2023/07/23 00:25:46;;;;;;;2.20;2.00;;;;;;;19.46;60.77;97828.63;4995881;28;20211;-77
2023/07/23 00:28:12;;;;;;;2.30;2.10;;;;;;;19.45;61.04;97832.41;4996741;28;20227;-77
2023/07/23 00:30:38;;;;;;;5.40;3.13;;;;;;;19.46;60.21;97823.25;4996074;28;20211;-76
2023/07/23 00:33:05;;;;;;;2.50;2.30;;;;;;;19.37;60.54;97819.53;4996905;28;20210;-76
2023/07/23 00:35:32;;;;;;;3.60;2.30;;;;;;;19.32;62.18;97822.25;4994232;28;20676;-76
2023/07/23 00:37:58;;;;;;;3.47;2.60;;;;;;;19.32;60.56;97826.88;4996489;28;20563;-77
2023/07/23 00:40:24;;;;;;;3.10;2.30;;;;;;;19.34;61.10;97824.69;4996674;28;20227;-77
2023/07/23 00:42:51;;;;;;;2.63;2.30;;;;;;;19.32;61.12;97833.03;4996704;28;20203;-79
2023/07/23 00:45:17;;;;;;;2.87;2.43;;;;;;;19.35;61.24;97829.81;4996655;28;20213;-77
2023/07/23 00:47:44;;;;;;;2.70;2.27;;;;;;;19.29;61.35;97832.81;4994913;28;20199;-77
2023/07/23 00:50:13;;;;;;;4.37;2.30;;;;;;;19.25;61.61;97827.19;4995819;28;20235;-77
2023/07/23 00:52:40;;;;;;;2.80;2.60;;;;;;;19.22;61.38;97824.19;4996397;28;20207;-77
2023/07/23 00:55:08;;;;;;;4.20;2.20;;;;;;;19.24;60.77;97820.19;4996601;28;20219;-77
2023/07/23 00:57:34;;;;;;;2.30;2.10;;;;;;;19.16;62.28;97817.22;4994107;28;20203;-77
2023/07/23 01:00:01;;;;;;;2.50;2.30;;;;;;;19.12;61.68;97818.88;4995144;28;20231;-77
2023/07/23 01:02:28;;;;;;;2.63;2.30;;;;;;;19.06;62.39;97818.09;4996403;28;20207;-77
2023/07/23 01:04:55;;;;;;;2.47;2.27;;;;;;;19.02;63.08;97817.06;4995594;28;20720;-77
2023/07/23 01:07:23;;;;;;;3.90;2.57;;;;;;;18.92;63.15;97811.69;4996341;28;20207;-77
2023/07/23 01:09:50;;;;;;;4.57;2.50;;;;;;;18.92;63.01;97808.22;4996458;28;20235;-77
2023/07/23 01:12:19;;;;;;;3.43;2.70;;;;;;;18.87;63.18;97813.63;4996163;28;20207;-77
2023/07/23 01:14:46;;;;;;;3.77;2.30;;;;;;;18.80;63.99;97810.41;4996181;28;20207;-77
2023/07/23 01:17:13;;;;;;;3.13;2.43;;;;;;;18.76;64.47;97803.97;4994950;28;20203;-76
2023/07/23 01:19:40;;;;;;;2.47;2.27;;;;;;;18.75;63.41;97805.06;4995176;28;20227;-76
2023/07/23 01:22:06;;;;;;;3.03;2.43;;;;;;;18.67;64.26;97797.56;4995988;28;20227;-76
2023/07/23 01:24:34;;;;;;;2.50;2.30;;;;;;;18.65;64.95;97800.53;4996242;28;20214;-76
2023/07/23 01:27:00;;;;;;;2.60;2.20;;;;;;;18.58;64.99;97802.72;4995924;28;20209;-77
2023/07/23 01:29:27;;;;;;;2.97;2.30;;;;;;;18.61;64.78;97791.41;4995907;28;20234;-77
2023/07/23 01:31:53;;;;;;;3.77;2.73;;;;;;;18.58;65.47;97794.63;4995542;28;20211;-77
2023/07/23 01:34:20;;;;;;;2.43;2.23;;;;;;;18.52;66.01;97789.56;4995710;28;20218;-77
2023/07/23 01:36:47;;;;;;;3.93;2.10;;;;;;;18.49;66.15;97785.53;4995421;28;20218;-77
2023/07/23 01:39:14;;;;;;;2.60;2.40;;;;;;;18.47;66.11;97782.31;4994759;28;20698;-77
2023/07/23 01:41:40;;;;;;;2.27;2.07;;;;;;;18.40;66.09;97787.19;4995606;28;20219;-77
2023/07/23 01:44:07;;;;;;;2.77;2.20;;;;;;;18.38;66.30;97792.03;4995697;28;20243;-77
2023/07/23 01:46:33;;;;;;;2.80;2.40;;;;;;;18.39;66.26;97792.84;4995544;28;20203;-76
2023/07/23 01:49:00;;;;;;;2.30;2.10;;;;;;;18.41;66.61;97788.00;4994578;28;20273;-76
2023/07/23 01:51:26;;;;;;;2.53;2.33;;;;;;;18.43;67.23;97781.25;4995473;28;20183;-77
2023/07/23 01:53:52;;;;;;;2.60;2.30;;;;;;;18.43;66.27;97781.25;4995445;28;20211;-77
2023/07/23 01:56:19;;;;;;;2.87;2.13;;;;;;;18.39;65.73;97782.06;4995398;28;20204;-76
2023/07/23 01:58:45;;;;;;;2.70;2.47;;;;;;;18.37;65.96;97782.34;4995292;28;20227;-77
2023/07/23 02:01:11;;;;;;;4.27;2.20;;;;;;;18.49;66.35;97780.16;4995255;28;20227;-77
2023/07/23 02:03:38;;;;;;;2.50;2.30;;;;;;;18.52;64.94;97779.59;4995290;28;20210;-77
2023/07/23 02:06:04;;;;;;;2.53;2.17;;;;;;;18.51;65.59;97777.97;4995255;28;20209;-77
2023/07/23 02:08:30;;;;;;;2.40;2.20;;;;;;;18.63;63.70;97774.94;4996094;28;20227;-77
2023/07/23 02:11:01;;;;;;;2.60;2.40;;;;;;;18.49;64.94;97772.06;4994553;28;20610;-76
2023/07/23 02:13:29;;;;;;;2.63;2.40;;;;;;;18.45;66.04;97776.38;4994737;28;20218;-73
2023/07/23 02:15:55;;;;;;;2.27;1.97;;;;;;;18.55;64.93;97772.84;4994951;28;20666;-72
2023/07/23 02:18:22;;;;;;;3.57;2.40;;;;;;;18.50;65.37;97770.97;4994887;28;20310;-72
2023/07/23 02:20:49;;;;;;;2.20;2.00;;;;;;;18.53;64.42;97775.81;4994903;28;20231;-72
2023/07/23 02:23:16;;;;;;;2.93;2.30;;;;;;;18.45;66.36;97772.88;4994937;28;20203;-72
2023/07/23 02:25:43;;;;;;;2.43;1.80;;;;;;;18.48;65.66;97770.47;4994470;28;20667;-72
2023/07/23 02:28:10;;;;;;;2.83;2.43;;;;;;;18.47;65.42;97776.94;4994746;28;20211;-72
2023/07/23 02:30:37;;;;;;;2.80;2.60;;;;;;;18.44;65.20;97777.47;4994764;28;20214;-72
2023/07/23 02:33:04;;;;;;;2.30;2.10;;;;;;;18.40;66.03;97772.91;4994716;28;20233;-72
2023/07/23 02:35:30;;;;;;;2.50;2.13;;;;;;;18.47;65.77;97776.94;4994436;28;20266;-72
2023/07/23 02:37:57;;;;;;;3.23;2.30;;;;;;;18.50;65.24;97776.38;4994683;28;20207;-72
2023/07/23 02:40:23;;;;;;;2.53;2.30;;;;;;;18.50;64.05;97787.13;4994650;28;20210;-72
2023/07/23 02:42:50;;;;;;;2.70;2.27;;;;;;;18.49;65.59;97782.84;4994467;28;20233;-72
2023/07/23 02:45:16;;;;;;;2.37;2.17;;;;;;;18.50;64.63;97787.13;4994790;28;20309;-72
2023/07/23 02:47:42;;;;;;;2.50;2.20;;;;;;;18.47;65.33;97794.97;4994482;28;20203;-72
2023/07/23 02:50:09;;;;;;;2.60;2.20;;;;;;;18.47;64.24;97782.31;4994200;28;20246;-72
2023/07/23 02:52:35;;;;;;;2.53;2.20;;;;;;;18.40;65.21;97789.06;4994414;28;20199;-72
2023/07/23 02:55:02;;;;;;;2.40;2.20;;;;;;;18.38;65.03;97788.53;4994449;28;20214;-72
2023/07/23 02:57:29;;;;;;;2.27;2.07;;;;;;;18.30;65.89;97795.25;4994214;28;20662;-72
2023/07/23 02:59:55;;;;;;;2.70;2.50;;;;;;;18.38;65.22;97792.03;4993970;28;20231;-72
2023/07/23 03:02:22;;;;;;;2.90;2.30;;;;;;;18.36;65.27;97787.97;4993943;28;20644;-72
2023/07/23 03:04:48;;;;;;;2.40;2.20;;;;;;;18.42;64.62;97790.38;4994329;28;20545;-72
2023/07/23 03:07:14;;;;;;;2.13;1.97;;;;;;;18.48;65.01;97783.91;4994299;28;20209;-72
2023/07/23 03:09:41;;;;;;;2.37;2.17;;;;;;;18.56;63.09;97788.75;4993952;28;20234;-72
2023/07/23 03:12:09;;;;;;;2.77;2.20;;;;;;;18.51;64.26;97787.94;4994114;28;20206;-72
2023/07/23 03:14:36;;;;;;;2.53;2.33;;;;;;;18.48;63.64;97785.78;4993819;28;20207;-72
2023/07/23 03:17:02;;;;;;;2.43;2.23;;;;;;;18.48;64.28;97794.69;4994169;28;20207;-72
2023/07/23 03:19:29;;;;;;;2.40;2.20;;;;;;;18.56;62.94;97791.44;4993564;28;20228;-72
2023/07/23 03:21:55;;;;;;;2.40;2.20;;;;;;;18.57;63.09;97790.34;4993790;28;20227;-72
2023/07/23 03:24:21;;;;;;;2.63;2.43;;;;;;;18.54;63.33;97792.75;4993991;28;20207;-72
2023/07/23 03:26:48;;;;;;;2.50;2.30;;;;;;;18.53;63.67;97791.97;4994049;28;20214;-72
2023/07/23 03:29:14;;;;;;;3.40;2.50;;;;;;;18.48;63.94;97789.31;4993942;28;20227;-72
2023/07/23 03:31:40;;;;;;;2.97;2.30;;;;;;;18.44;63.69;97788.25;4993881;28;20199;-72
2023/07/23 03:34:07;;;;;;;2.50;2.17;;;;;;;18.47;63.23;97786.88;4993850;28;20217;-72
2023/07/23 03:36:33;;;;;;;2.27;2.13;;;;;;;18.38;64.23;97792.03;4993918;28;20207;-72
2023/07/23 03:38:59;;;;;;;2.33;2.13;;;;;;;18.40;64.40;97795.25;4993832;28;20253;-72
2023/07/23 03:41:26;;;;;;;3.63;2.50;;;;;;;18.34;64.26;97793.66;4994984;28;20597;-72
2023/07/23 03:43:52;;;;;;;2.80;2.30;;;;;;;18.39;64.11;97795.53;4997717;28;20214;-72
2023/07/23 03:46:18;;;;;;;2.40;2.20;;;;;;;18.34;65.77;97799.06;4997511;28;20208;-72
2023/07/23 03:48:47;;;;;;;2.83;2.50;;;;;;;18.37;64.27;97798.47;4997488;28;20231;-72
2023/07/23 03:51:15;;;;;;;2.30;2.10;;;;;;;18.40;64.05;97791.75;4996368;28;20191;-72
2023/07/23 03:53:41;;;;;;;2.40;2.20;;;;;;;18.33;65.00;97786.66;4996105;28;20210;-72
2023/07/23 03:56:08;;;;;;;2.20;2.00;;;;;;;18.33;64.90;97791.25;4996385;28;20207;-72
2023/07/23 03:58:34;;;;;;;2.57;2.20;;;;;;;18.35;64.45;97795.28;4996307;28;20227;-72
2023/07/23 04:01:00;;;;;;;3.27;2.43;;;;;;;18.36;64.44;97793.38;4997187;28;20217;-72
2023/07/23 04:03:27;;;;;;;2.83;2.30;;;;;;;18.39;64.42;97793.66;4995989;28;20203;-72
2023/07/23 04:05:53;;;;;;;5.20;2.33;;;;;;;18.41;63.99;97796.84;4996106;28;20213;-72
2023/07/23 04:08:19;;;;;;;2.40;2.20;;;;;;;18.45;64.68;97800.63;4995815;28;20263;-72
2023/07/23 04:10:46;;;;;;;2.50;2.30;;;;;;;18.40;64.98;97791.75;4996388;28;20203;-72
2023/07/23 04:13:12;;;;;;;2.43;2.10;;;;;;;18.66;62.81;97785.19;4995835;28;20203;-72
2023/07/23 04:15:38;;;;;;;2.73;2.00;;;;;;;18.78;62.61;97796.44;4995969;28;20256;-72
2023/07/23 04:18:13;;;;;;;2.43;2.23;;;;;;;18.78;62.99;97804.53;4995897;28;20207;-72
2023/07/23 04:20:39;;;;;;;2.60;2.27;;;;;;;18.74;63.24;97792.69;4995967;28;20187;-72
2023/07/23 04:23:06;;;;;;;3.00;2.07;;;;;;;18.76;63.78;97801.28;4995510;28;20721;-72
2023/07/23 04:25:32;;;;;;;4.90;2.00;;;;;;;18.86;62.58;97807.44;4995567;28;20298;-72
2023/07/23 04:27:59;;;;;;;2.30;2.10;;;;;;;18.96;62.11;97799.28;4996122;28;20207;-72
2023/07/23 04:30:28;;;;;;;2.40;2.20;;;;;;;19.02;61.98;97806.28;4995854;28;20207;-72
2023/07/23 04:32:55;;;;;;;2.30;2.10;;;;;;;19.00;62.60;97802.25;4995878;28;20207;-72
2023/07/23 04:35:21;;;;;;;2.37;2.17;;;;;;;19.00;63.23;97807.63;4995501;28;20671;-72
2023/07/23 04:37:47;;;;;;;2.33;2.13;;;;;;;19.09;61.76;97805.97;4995640;28;20216;-72
2023/07/23 04:40:14;;;;;;;2.37;2.17;;;;;;;19.11;62.18;97812.69;4995549;28;20224;-72
2023/07/23 04:42:40;;;;;;;2.80;2.20;;;;;;;19.10;63.58;97805.66;4995554;28;20230;-72
2023/07/23 04:45:07;;;;;;;4.23;2.13;;;;;;;19.20;61.47;97808.31;4995619;28;20203;-72
2023/07/23 04:47:35;;;;;;;2.37;2.10;;;;;;;19.13;63.10;97810.50;4995567;28;20208;-72
2023/07/23 04:50:01;;;;;;;2.73;2.30;;;;;;;19.19;62.50;97812.06;4955160;28;1180171;-72
2023/07/23 04:52:28;;;;;;;3.33;2.37;;;;;;;19.27;62.54;97808.03;4996142;28;20572;-73
2023/07/23 04:54:54;;;;;;;2.23;2.03;;;;;;;19.26;61.94;97814.50;4996288;28;20574;-72
2023/07/23 04:57:20;;;;;;;2.30;2.10;;;;;;;19.22;62.48;97808.84;4996336;28;20680;-72
2023/07/23 04:59:47;;;;;;;2.17;2.03;;;;;;;19.17;63.97;97806.16;4996482;28;20586;-72
2023/07/23 05:02:13;;;;;;;3.17;2.10;;;;;;;19.17;63.56;97814.25;4996251;28;20233;-72
2023/07/23 05:04:39;;;;;;;4.13;2.30;;;;;;;19.32;62.85;97818.78;4996151;28;20207;-72
2023/07/23 05:07:06;;;;;;;2.57;2.37;;;;;;;19.47;63.25;97813.28;4996077;28;20216;-72
2023/07/23 05:09:32;;;;;;;2.37;2.17;;;;;;;19.80;61.45;97811.66;4996180;28;20234;-72
2023/07/23 05:11:58;;;;;;;4.37;2.13;;;;;;;20.20;59.37;97813.97;4996070;28;20211;-72
2023/07/23 05:14:25;;;;;;;2.13;2.03;;;;;;;20.66;58.37;97807.78;4995890;28;20214;-72
2023/07/23 05:16:51;;;;;;;2.27;2.07;;;;;;;21.03;56.92;97807.06;4996207;28;20208;-72
2023/07/23 05:19:17;;;;;;;2.33;2.10;;;;;;;21.04;56.38;97811.38;4996114;28;20223;-72
2023/07/23 05:21:44;;;;;;;2.37;2.17;;;;;;;21.15;56.30;97812.81;4995940;28;20223;-72
2023/07/23 05:24:10;;;;;;;2.40;2.20;;;;;;;21.04;56.01;97806.78;4996282;28;20214;-72
2023/07/23 05:26:36;;;;;;;2.70;1.80;;;;;;;21.01;56.26;97812.75;4996084;28;20301;-72
2023/07/23 05:29:03;;;;;;;2.47;1.90;;;;;;;20.85;57.43;97807.81;4995946;28;20227;-72
2023/07/23 05:31:29;;;;;;;5.07;2.17;;;;;;;20.71;57.70;97812.34;4995979;28;20235;-72
2023/07/23 05:33:56;;;;;;;2.63;2.27;;;;;;;20.66;58.56;97812.41;4995966;28;20209;-72
2023/07/23 05:36:22;;;;;;;2.77;2.07;;;;;;;20.69;58.33;97806.41;4995818;28;20229;-72
2023/07/23 05:38:48;;;;;;;2.40;2.20;;;;;;;20.68;58.91;97810.19;4995757;28;20223;-72
2023/07/23 05:41:15;;;;;;;5.10;2.50;;;;;;;20.83;58.17;97810.81;4995732;28;20209;-72
2023/07/23 05:43:41;;;;;;;2.73;2.20;;;;;;;20.81;57.54;97812.19;4995643;28;20234;-72
2023/07/23 05:46:08;;;;;;;3.00;1.93;;;;;;;20.97;56.90;97809.03;4995622;28;20207;-72
2023/07/23 05:48:34;;;;;;;3.50;2.03;;;;;;;20.91;57.75;97810.19;4995648;28;20227;-72
2023/07/23 05:51:01;;;;;;;3.20;1.97;;;;;;;21.00;56.71;97821.16;4995180;28;20219;-72
2023/07/23 05:53:27;;;;;;;2.40;2.20;;;;;;;21.09;57.30;97808.59;4995235;28;20210;-72
2023/07/23 05:55:53;;;;;;;2.40;2.10;;;;;;;21.20;56.96;97802.75;4995469;28;20692;-72
2023/07/23 05:58:20;;;;;;;2.30;2.10;;;;;;;21.16;56.44;97809.84;4995307;28;20250;-72
2023/07/23 06:00:46;;;;;;;2.40;2.20;;;;;;;21.23;56.08;97809.47;4995057;28;20574;-72
2023/07/23 06:03:12;;;;;;;2.40;2.20;;;;;;;21.31;55.96;97815.03;4995033;28;20231;-72
2023/07/23 06:05:39;;;;;;;2.33;2.00;;;;;;;21.38;55.50;97809.28;4994960;28;20211;-72
2023/07/23 06:08:05;;;;;;;2.30;2.10;;;;;;;21.55;54.59;97810.34;4995172;28;20204;-72
2023/07/23 06:10:32;;;;;;;2.93;2.03;;;;;;;21.59;54.67;97808.66;4995076;28;20211;-72
2023/07/23 06:12:59;;;;;;;2.57;2.10;;;;;;;21.81;55.04;97818.88;4994829;28;20671;-72
2023/07/23 06:15:25;;;;;;;3.70;2.30;;;;;;;21.98;55.44;97817.19;4995004;28;20572;-72
2023/07/23 06:17:51;;;;;;;2.33;2.13;;;;;;;22.20;54.05;97811.94;4993172;28;20659;-77
2023/07/23 06:20:18;;;;;;;2.50;2.00;;;;;;;22.27;53.45;97814.25;4994534;28;20205;-78
2023/07/23 06:22:47;;;;;;;2.75;2.30;;;;;;;22.21;54.18;97810.03;4994745;28;20223;-77
2023/07/23 06:25:14;;;;;;;2.53;2.05;;;;;;;22.18;53.93;97816.03;4994947;28;20214;-77
2023/07/23 06:27:45;;;;;;;2.45;2.25;;;;;;;22.03;53.27;97817.09;4996202;28;20235;-77
2023/07/23 06:30:12;;;;;;;3.08;2.20;;;;;;;21.83;54.62;97822.06;4994183;28;20330;-78
2023/07/23 06:32:38;;;;;;;3.22;2.25;;;;;;;21.67;53.74;97818.00;4994570;28;20203;-77
2023/07/23 06:37:45;;;;;;;2.38;2.17;;;;;;;21.75;53.47;97814.66;4993480;28;20238;-77
2023/07/23 06:40:11;;;;;;;2.30;2.10;;;;;;;21.70;54.42;97822.84;4994299;28;20238;-78
2023/07/23 06:42:59;;;;;;;4.70;2.17;;;;;;;21.69;54.37;97819.34;4994559;28;20609;-77
2023/07/23 06:45:28;;;;;;;2.53;2.27;;;;;;;21.76;54.61;97821.66;4994744;28;20705;-77
2023/07/23 06:47:56;;;;;;;3.83;2.50;;;;;;;21.80;54.02;97820.75;4994424;28;20230;-78
2023/07/23 06:50:22;;;;;;;2.30;2.10;;;;;;;21.70;54.48;97826.34;4994330;28;20214;-77
2023/07/23 06:52:49;;;;;;;3.40;2.27;;;;;;;21.74;53.37;97826.56;4994238;28;20663;-78
2023/07/23 06:55:15;;;;;;;2.97;2.67;;;;;;;21.92;53.80;97817.59;4994339;28;20578;-78
2023/07/23 06:57:42;;;;;;;3.10;2.30;;;;;;;21.94;52.63;97808.09;4995487;28;20273;-77
2023/07/23 07:00:14;;;;;;;2.30;2.10;;;;;;;21.97;53.31;97814.81;4993975;28;20215;-78
2023/07/23 07:02:42;;;;;;;2.42;2.22;;;;;;;22.02;53.54;97818.22;4994479;28;20355;-77
2023/07/23 07:05:09;;;;;;;2.43;2.23;;;;;;;22.08;55.32;97811.63;4994179;28;20207;-77
2023/07/23 07:07:39;;;;;;;2.53;2.33;;;;;;;22.02;52.63;97809.31;4994162;28;20655;-77
2023/07/23 07:10:06;;;;;;;2.20;2.00;;;;;;;22.05;52.67;97816.81;4993868;28;20261;-77
2023/07/23 07:12:33;;;;;;;3.42;2.40;;;;;;;22.00;52.67;97816.91;4993742;28;20203;-78
2023/07/23 07:14:59;;;;;;;2.83;2.20;;;;;;;21.93;54.68;97809.16;4993970;28;20215;-77
2023/07/23 07:17:25;;;;;;;2.50;2.30;;;;;;;21.96;54.21;97824.00;4993735;28;20215;-77
2023/07/23 07:19:52;;;;;;;3.70;2.33;;;;;;;22.10;53.57;97819.44;4993726;28;20718;-77
2023/07/23 07:22:18;;;;;;;2.60;2.40;;;;;;;22.32;52.64;97814.16;4993678;28;20219;-77
2023/07/23 07:24:45;;;;;;;3.10;2.80;;;;;;;22.44;51.78;97814.47;4994668;28;20211;-77
2023/07/23 07:27:16;;;;;;;3.00;2.70;;;;;;;22.51;51.32;97813.00;4996677;28;20674;-77
2023/07/23 07:29:42;;;;;;;2.40;2.10;;;;;;;22.67;51.07;97808.06;4995520;28;20233;-78
2023/07/23 07:32:09;;;;;;;3.10;2.15;;;;;;;22.77;50.58;97807.84;4994661;28;20209;-77
2023/07/23 07:34:36;;;;;;;2.92;2.42;;;;;;;22.99;50.48;97807.94;4991371;28;20241;-77
2023/07/23 07:37:02;;;;;;;2.65;2.45;;;;;;;23.08;49.67;97803.41;4992315;28;20209;-77
2023/07/23 07:39:28;;;;;;;3.15;2.28;;;;;;;23.29;49.75;97799.94;4993342;28;20227;-78
2023/07/23 07:41:56;;;;;;;2.33;2.10;;;;;;;23.58;50.16;97799.53;4993480;28;20207;-77
2023/07/23 07:44:23;;;;;;;2.33;2.13;;;;;;;23.37;47.95;97809.25;4992750;28;20207;-77
2023/07/23 07:46:49;;;;;;;2.63;1.85;;;;;;;23.47;48.55;97809.84;4993356;28;20212;-77
2023/07/23 07:49:15;;;;;;;2.45;2.20;;;;;;;23.53;49.04;97815.94;4993367;28;20737;-77
2023/07/23 07:51:44;;;;;;;7.63;4.03;;;;;;;23.65;49.14;97810.78;4993853;28;20214;-77
2023/07/23 07:54:10;;;;;;;6.40;3.30;;;;;;;23.34;49.92;97815.31;4992983;28;20216;-77
2023/07/23 07:56:37;;;;;;;8.48;4.20;;;;;;;23.40;50.04;97812.19;4988667;28;20659;-77
2023/07/23 07:59:05;;;;;;;7.00;3.40;;;;;;;23.34;48.76;97810.69;4993556;28;20314;-78
2023/07/23 08:01:31;;;;;;;4.35;2.63;;;;;;;23.35;49.25;97808.78;4993427;28;20257;-77
2023/07/23 08:03:58;;;;;;;4.07;3.10;;;;;;;23.34;49.87;97809.91;4993332;28;20246;-77
2023/07/23 08:06:25;;;;;;;2.78;2.53;;;;;;;23.52;50.23;97803.50;4993680;28;20207;-77
2023/07/23 08:08:52;;;;;;;3.30;2.97;;;;;;;23.73;50.03;97815.44;4993507;28;20237;-76
2023/07/23 08:11:20;;;;;;;2.42;2.22;;;;;;;23.82;50.42;97808.97;4993570;28;20641;-77
2023/07/23 08:13:47;;;;;;;3.58;2.42;;;;;;;23.66;48.66;97807.75;4993410;28;20210;-77
2023/07/23 08:16:16;;;;;;;2.95;2.53;;;;;;;24.05;49.72;97804.34;4993612;28;20210;-77
2023/07/23 08:18:44;;;;;;;4.93;3.00;;;;;;;24.13;49.14;97812.56;4993698;28;20231;-77
2023/07/23 08:21:11;;;;;;;4.75;2.72;;;;;;;24.04;47.71;97803.56;4993360;28;20215;-77
2023/07/23 08:23:38;;;;;;;2.92;2.20;;;;;;;24.24;48.49;97805.72;4993696;28;20223;-77
2023/07/23 08:26:06;;;;;;;3.70;2.50;;;;;;;24.16;48.36;97813.84;4993317;28;20207;-77
2023/07/23 08:28:38;;;;;;;3.88;2.42;;;;;;;24.11;47.50;97813.97;4996355;28;20227;-77
2023/07/23 08:31:05;;;;;;;2.33;2.13;;;;;;;23.95;47.59;97812.75;4997283;28;20188;-76
2023/07/23 08:33:33;;;;;;;2.25;2.00;;;;;;;23.87;46.84;97808.03;4996432;28;20298;-77
2023/07/23 08:36:01;;;;;;;5.93;2.58;;;;;;;23.90;47.30;97815.59;4996867;28;20211;-76
2023/07/23 08:38:28;;;;;;;2.20;2.03;;;;;;;23.85;47.96;97808.38;4996717;28;20769;-76
2023/07/23 08:41:01;;;;;;;3.88;1.75;;;;;;;24.21;47.95;97813.72;4994776;28;20212;-77
2023/07/23 08:44:04;;;;;;;2.67;1.70;;;;;;;24.09;47.03;97813.47;4996162;28;20619;-77
2023/07/23 08:46:31;;;;;;;2.25;2.05;;;;;;;24.41;47.44;97810.44;4996245;28;20667;-77
2023/07/23 08:48:56;;;;;;;2.45;2.00;;;;;;;24.11;47.20;97812.06;4996358;28;20234;-77
2023/07/23 08:51:34;;;;;;;3.30;1.80;;;;;;;24.15;48.19;97815.75;4996671;28;20282;-77
2023/07/23 08:54:02;;;;;;;2.38;2.00;;;;;;;24.16;48.13;97814.63;4996748;28;20192;-77
2023/07/23 08:56:28;;;;;;;2.28;2.08;;;;;;;23.90;48.50;97816.41;4996339;28;20217;-77
2023/07/23 08:58:55;;;;;;;3.63;2.13;;;;;;;23.89;48.12;97814.78;4996517;28;20226;-77
2023/07/23 09:01:24;;;;;;;3.28;2.13;;;;;;;23.90;48.14;97812.88;4996508;28;20214;-77
2023/07/23 09:03:50;;;;;;;2.15;1.85;;;;;;;23.95;49.25;97812.75;4996169;28;20230;-77
2023/07/23 09:06:18;;;;;;;2.13;1.92;;;;;;;24.07;48.01;97813.00;4996386;28;20207;-77
2023/07/23 09:08:44;;;;;;;2.53;1.75;;;;;;;24.21;48.78;97814.53;4996314;28;20231;-77
2023/07/23 09:11:10;;;;;;;2.30;1.98;;;;;;;24.40;49.71;97804.22;4995733;28;20234;-77
2023/07/23 09:13:38;;;;;;;2.72;1.90;;;;;;;24.06;47.90;97805.97;4996127;28;20574;-77
2023/07/23 09:16:05;;;;;;;1.85;1.75;;;;;;;24.08;49.16;97807.25;4995064;28;20203;-77
2023/07/23 09:18:32;;;;;;;2.10;2.00;;;;;;;24.10;48.73;97813.16;4996262;28;20591;-77
2023/07/23 09:20:58;;;;;;;2.03;1.80;;;;;;;24.20;48.86;97799.31;4996067;28;20203;-77
2023/07/23 09:23:29;;;;;;;2.70;1.77;;;;;;;24.28;48.47;97800.50;4994134;28;20277;-77
2023/07/23 09:25:58;;;;;;;5.13;2.22;;;;;;;24.44;48.83;97793.50;4996442;28;20213;-77
2023/07/23 09:28:25;;;;;;;3.00;1.80;;;;;;;24.50;48.50;97798.50;4995741;28;20230;-77
2023/07/23 09:30:56;;;;;;;4.07;2.10;;;;;;;24.53;47.17;97792.44;4996346;28;20552;-77
2023/07/23 09:33:22;;;;;;;2.15;2.00;;;;;;;24.77;49.02;97787.41;4995849;28;20204;-77
2023/07/23 09:35:49;;;;;;;1.77;1.67;;;;;;;24.95;46.29;97780.91;4996157;28;20214;-77
2023/07/23 09:38:15;;;;;;;2.17;1.80;;;;;;;25.09;45.51;97781.56;4995580;28;20242;-77
2023/07/23 09:40:44;;;;;;;1.80;1.70;;;;;;;24.87;45.65;97787.13;4995363;28;20698;-77
2023/07/23 09:43:10;;;;;;;2.05;1.92;;;;;;;24.95;47.00;97786.34;4995698;28;20223;-77
2023/07/23 09:45:39;;;;;;;2.40;2.20;;;;;;;25.05;46.05;97779.81;4993502;28;20212;-77
2023/07/23 09:48:07;;;;;;;1.95;1.85;;;;;;;24.88;45.12;97782.50;4994342;28;20227;-77
2023/07/23 09:50:33;;;;;;;3.85;2.00;;;;;;;25.01;44.81;97789.72;4994794;28;20215;-77
2023/07/23 09:53:00;;;;;;;2.83;1.80;;;;;;;24.89;44.88;97786.81;4995150;28;20241;-77
2023/07/23 09:55:27;;;;;;;1.80;1.70;;;;;;;25.02;45.74;97781.22;4995073;28;20204;-77
2023/07/23 09:57:54;;;;;;;2.13;1.95;;;;;;;24.86;44.98;97782.00;4995312;28;20299;-77
2023/07/23 10:00:21;;;;;;;2.33;1.65;;;;;;;25.07;44.42;97780.28;4995292;28;20558;-78
2023/07/23 10:02:50;;;;;;;2.47;1.88;;;;;;;25.51;44.15;97780.00;4994485;28;20227;-77
2023/07/23 10:05:19;;;;;;;3.53;1.90;;;;;;;25.72;44.03;97783.66;4994593;28;20203;-77
2023/07/23 10:07:47;;;;;;;1.75;1.50;;;;;;;25.49;43.38;97785.78;4993257;28;20662;-77
2023/07/23 10:10:15;;;;;;;3.13;1.73;;;;;;;25.54;42.92;97772.00;4991869;28;20826;-77
2023/07/23 10:12:41;;;;;;;2.22;1.65;;;;;;;26.09;40.90;97777.50;4992338;28;20203;-77
2023/07/23 10:15:09;;;;;;;2.05;1.77;;;;;;;25.92;41.89;97775.63;4994358;28;20218;-77
2023/07/23 10:17:41;;;;;;;1.73;1.63;;;;;;;25.28;41.11;97781.28;4994745;28;20207;-76
2023/07/23 10:20:11;;;;;;;2.08;1.90;;;;;;;25.37;42.08;97774.72;4993822;28;20231;-77
2023/07/23 10:22:39;;;;;;;2.00;1.77;;;;;;;25.44;41.98;97769.59;4994450;28;20211;-77
2023/07/23 10:25:25;;;;;;;2.00;1.75;;;;;;;25.33;43.20;97759.38;4994376;28;20671;-77
2023/07/23 10:28:21;;;;;;;1.83;1.60;;;;;;;25.19;43.15;97767.63;4995177;28;20203;-77
2023/07/23 10:30:47;;;;;;;2.00;1.90;;;;;;;25.21;42.01;97770.84;4994681;28;20223;-77
2023/07/23 10:33:13;;;;;;;2.92;1.83;;;;;;;25.41;41.32;97758.53;4994584;28;20207;-77
2023/07/23 10:35:55;;;;;;;2.20;2.00;;;;;;;26.21;39.82;97759.38;4994350;28;20734;-78
2023/07/23 10:38:26;;;;;;;2.53;2.33;;;;;;;25.39;41.25;97763.50;4994128;28;20227;-77
2023/07/23 10:40:52;;;;;;;5.05;2.50;;;;;;;25.35;40.86;97748.94;4994290;28;20195;-77
2023/07/23 10:43:19;;;;;;;4.05;2.75;;;;;;;25.65;41.39;97746.00;4993991;28;20219;-77
2023/07/23 10:46:05;;;;;;;3.13;2.83;;;;;;;25.71;40.23;97749.38;4992123;28;20208;-77
2023/07/23 10:48:50;;;;;;;2.40;2.20;;;;;;;25.94;40.18;97751.59;4993707;28;20223;-77
2023/07/23 10:51:22;;;;;;;2.47;2.28;;;;;;;25.80;40.82;97742.00;4993207;28;20207;-77
2023/07/23 10:53:57;;;;;;;2.00;1.90;;;;;;;25.58;41.33;97743.00;4988461;28;20523;-77
2023/07/23 10:56:35;;;;;;;2.67;2.00;;;;;;;25.45;41.95;97737.72;4974369;28;20584;-77
2023/07/23 10:59:11;;;;;;;2.25;2.05;;;;;;;25.45;41.54;97726.84;4983731;28;20227;-77
2023/07/23 11:01:42;;;;;;;2.40;2.20;;;;;;;25.71;41.04;97733.03;4994381;28;20195;-77
2023/07/23 11:04:14;;;;;;;2.33;2.13;;;;;;;26.18;41.64;97721.06;4992469;28;20687;-77
2023/07/23 11:06:56;;;;;;;4.30;2.17;;;;;;;26.46;40.69;97725.72;4990155;28;20195;-77
2023/07/23 11:09:30;;;;;;;3.42;2.17;;;;;;;26.09;40.24;97720.28;4990313;28;20706;-77
2023/07/23 11:11:57;;;;;;;2.45;1.90;;;;;;;26.12;39.97;97720.44;4993124;28;20202;-77
2023/07/23 11:14:26;;;;;;;2.45;2.25;;;;;;;25.89;41.39;97718.25;4993895;28;20204;-77
2023/07/23 11:16:54;;;;;;;2.53;2.33;;;;;;;25.88;41.61;97724.84;4993964;28;20258;-77
2023/07/23 11:19:23;;;;;;;2.50;2.30;;;;;;;25.90;41.41;97720.66;4993655;28;20228;-77
2023/07/23 11:21:56;;;;;;;3.15;2.28;;;;;;;26.13;40.13;97719.31;4994054;28;20207;-77
2023/07/23 11:24:23;;;;;;;2.50;2.30;;;;;;;26.49;40.21;97710.63;4993585;28;20227;-77
2023/07/23 11:26:51;;;;;;;2.53;2.30;;;;;;;26.59;38.13;97713.03;4993957;28;20207;-77
2023/07/23 11:29:18;;;;;;;2.38;2.17;;;;;;;26.63;36.67;97703.03;4993114;28;20259;-77
2023/07/23 11:31:45;;;;;;;2.75;2.33;;;;;;;26.67;36.51;97715.69;4993866;28;20442;-77
2023/07/23 11:34:13;;;;;;;2.65;2.03;;;;;;;26.76;36.54;97710.19;4994101;28;20203;-77
2023/07/23 11:36:41;;;;;;;2.53;2.33;;;;;;;27.10;36.12;97704.47;4993980;28;20210;-77
2023/07/23 11:39:07;;;;;;;2.40;2.20;;;;;;;27.20;35.82;97695.91;4992526;28;20330;-76